createdAt,value
2018-04-11T00:00:28.058Z,14.48
2018-04-11T00:02:55.014Z,15.07
2018-04-11T00:05:21.996Z,15.23
2018-04-11T00:07:48.276Z,21.55
2018-04-11T00:10:14.524Z,17.50
2018-04-11T00:12:40.742Z,25.50
2018-04-11T00:15:06.977Z,19.23
2018-04-11T00:17:33.187Z,20.45
2018-04-11T00:19:59.416Z,13.60
2018-04-11T00:22:26.391Z,20.05
2018-04-11T00:24:52.634Z,17.15
2018-04-11T00:27:18.875Z,14.10
2018-04-11T00:29:45.160Z,15.32
2018-04-11T00:32:11.402Z,18.42
2018-04-11T00:34:37.613Z,25.55
2018-04-11T00:37:03.836Z,20.12
2018-04-11T00:39:30.043Z,22.40
2018-04-11T00:41:57.002Z,19.00
2018-04-11T00:44:23.991Z,18.00
2018-04-11T00:46:50.239Z,19.95
2018-04-11T00:49:16.448Z,14.65
2018-04-11T00:51:43.431Z,17.08
2018-04-11T00:54:09.625Z,21.67
2018-04-11T00:56:35.866Z,17.45
2018-04-11T00:59:02.074Z,18.62
2018-04-11T01:01:28.325Z,20.98
2018-04-11T01:03:54.536Z,20.40
2018-04-11T01:06:20.766Z,24.95
2018-04-11T01:08:47.007Z,19.87
2018-04-11T01:11:13.259Z,28.55
2018-04-11T01:13:39.496Z,29.27
2018-04-11T01:16:05.724Z,25.60
2018-04-11T01:18:32.690Z,29.02
2018-04-11T01:20:58.918Z,24.45
2018-04-11T01:23:25.084Z,25.10
2018-04-11T01:25:51.346Z,29.15
2018-04-11T01:28:17.556Z,23.38
2018-04-11T01:30:43.797Z,26.17
2018-04-11T01:33:10.018Z,24.52
2018-04-11T01:35:36.253Z,24.37
2018-04-11T01:38:02.481Z,24.92
2018-04-11T01:40:29.443Z,24.12
2018-04-11T01:42:56.454Z,26.75
2018-04-11T01:45:22.890Z,25.92
2018-04-11T01:47:49.176Z,23.55
2018-04-11T01:50:15.453Z,29.27
2018-04-11T01:52:41.687Z,28.87
2018-04-11T01:55:07.897Z,26.15
2018-04-11T01:57:34.129Z,29.05
2018-04-11T02:00:00.350Z,25.90
2018-04-11T02:02:26.575Z,25.83
2018-04-11T02:04:52.822Z,24.65
2018-04-11T02:07:19.139Z,28.67
2018-04-11T02:09:45.377Z,28.73
2018-04-11T02:12:11.633Z,24.55
2018-04-11T02:14:37.873Z,28.85
2018-04-11T02:17:04.101Z,27.30
2018-04-11T02:19:30.327Z,33.80
2018-04-11T02:21:56.556Z,30.35
2018-04-11T02:24:23.523Z,28.08
2018-04-11T02:26:49.775Z,27.20
2018-04-11T02:29:16.049Z,31.87
2018-04-11T02:31:42.299Z,32.78
2018-04-11T02:34:08.553Z,24.40
2018-04-11T02:36:34.806Z,31.52
2018-04-11T02:39:01.062Z,34.97
2018-04-11T02:41:28.094Z,25.92
2018-04-11T02:43:54.318Z,27.35
2018-04-11T02:46:20.780Z,30.20
2018-04-11T02:48:46.976Z,25.02
2018-04-11T02:51:13.178Z,31.58
2018-04-11T02:53:40.151Z,32.45
2018-04-11T02:56:06.365Z,31.10
2018-04-11T02:58:32.592Z,31.65
2018-04-11T03:00:58.808Z,34.45
2018-04-11T03:03:25.042Z,30.85
2018-04-11T03:05:51.248Z,30.25
2018-04-11T03:08:18.202Z,29.70
2018-04-11T03:10:45.160Z,30.27
2018-04-11T03:13:12.128Z,38.05
2018-04-11T03:15:38.340Z,35.78
2018-04-11T03:18:04.594Z,39.95
2018-04-11T03:20:31.559Z,41.17
2018-04-11T03:22:58.508Z,36.35
2018-04-11T03:25:25.459Z,29.63
2018-04-11T03:27:52.429Z,30.65
2018-04-11T03:30:19.375Z,30.77
2018-04-11T03:32:46.341Z,36.38
2018-04-11T03:35:13.427Z,33.75
2018-04-11T03:37:39.661Z,32.72
2018-04-11T03:40:05.887Z,32.58
2018-04-11T03:42:32.113Z,32.95
2018-04-11T03:44:59.075Z,33.15
2018-04-11T03:47:26.069Z,33.38
2018-04-11T03:49:52.298Z,36.53
2018-04-11T03:52:18.541Z,35.72
2018-04-11T03:54:44.763Z,37.33
2018-04-11T03:57:11.716Z,46.85
2018-04-11T03:59:38.682Z,37.80
2018-04-11T04:02:04.906Z,34.33
2018-04-11T04:04:31.894Z,39.95
2018-04-11T04:06:58.110Z,39.50
2018-04-11T04:09:25.090Z,34.45
2018-04-11T04:11:51.310Z,43.05
2018-04-11T04:14:29.620Z,39.85
2018-04-11T04:17:08.214Z,37.58
2018-04-11T04:20:00.432Z,39.08
2018-04-11T04:22:26.652Z,39.83
2018-04-11T04:24:53.778Z,40.17
2018-04-11T04:27:19.984Z,39.88
2018-04-11T04:29:46.197Z,32.38
2018-04-11T04:32:13.169Z,25.67
2018-04-11T04:34:39.413Z,42.30
2018-04-11T04:37:05.645Z,31.05
2018-04-11T04:39:31.881Z,29.37
2018-04-11T04:41:58.106Z,38.33
2018-04-11T04:44:25.082Z,23.30
2018-04-11T04:46:51.297Z,21.53
2018-04-11T04:49:18.343Z,32.47
2018-04-11T04:51:44.632Z,35.60
2018-04-11T04:54:10.850Z,33.50
2018-04-11T04:56:37.823Z,30.63
2018-04-11T04:59:04.079Z,31.00
2018-04-11T05:01:30.348Z,37.20
2018-04-11T05:03:56.641Z,35.47
2018-04-11T05:06:22.870Z,39.93
2018-04-11T05:08:49.862Z,33.20
2018-04-11T05:11:16.074Z,39.97
2018-04-11T05:13:43.042Z,32.30
2018-04-11T05:16:09.274Z,38.57
2018-04-11T05:18:36.239Z,37.77
2018-04-11T05:21:02.485Z,41.73
2018-04-11T05:23:28.739Z,46.80
2018-04-11T05:25:54.972Z,44.63
2018-04-11T05:28:21.239Z,40.27
2018-04-11T05:30:47.518Z,42.47
2018-04-11T05:33:14.521Z,50.30
2018-04-11T05:35:40.791Z,46.72
2018-04-11T05:38:07.030Z,45.00
2018-04-11T05:40:33.290Z,53.17
2018-04-11T05:42:59.515Z,49.88
2018-04-11T05:45:25.804Z,48.58
2018-04-11T05:47:52.198Z,53.75
2018-04-11T05:50:18.424Z,51.33
2018-04-11T05:52:44.656Z,52.65
2018-04-11T05:55:10.884Z,58.00
2018-04-11T05:57:37.121Z,46.25
2018-04-11T06:00:03.413Z,45.45
2018-04-11T06:02:29.646Z,52.62
2018-04-11T06:04:55.896Z,47.92
2018-04-11T06:07:22.113Z,49.63
2018-04-11T06:09:48.341Z,54.28
2018-04-11T06:12:14.566Z,48.47
2018-04-11T06:14:40.815Z,48.08
2018-04-11T06:17:07.043Z,51.50
2018-04-11T06:19:33.293Z,60.78
2018-04-11T06:21:59.524Z,46.25
2018-04-11T06:24:32.834Z,46.60
2018-04-11T06:26:59.075Z,48.47
2018-04-11T06:29:25.321Z,43.75
2018-04-11T06:31:51.565Z,38.60
2018-04-11T06:34:17.796Z,49.90
2018-04-11T06:36:44.036Z,42.20
2018-04-11T06:39:10.283Z,41.30
2018-04-11T06:41:36.509Z,42.30
2018-04-11T06:44:02.781Z,34.92
2018-04-11T06:46:29.738Z,47.20
2018-04-11T06:48:56.129Z,35.37
2018-04-11T06:51:23.114Z,37.53
2018-04-11T06:53:49.329Z,38.20
2018-04-11T06:56:16.307Z,36.23
2018-04-11T06:58:42.522Z,34.93
2018-04-11T07:01:09.499Z,28.93
2018-04-11T07:03:35.742Z,36.10
2018-04-11T07:06:02.722Z,37.77
2018-04-11T07:08:28.978Z,30.23
2018-04-11T07:10:55.194Z,31.50
2018-04-11T07:13:21.404Z,31.00
2018-04-11T07:15:47.645Z,30.93
2018-04-11T07:18:14.617Z,31.50
2018-04-11T07:20:40.894Z,28.27
2018-04-11T07:23:07.111Z,29.77
2018-04-11T07:25:33.323Z,34.67
2018-04-11T07:27:59.651Z,96.33
2018-04-11T07:30:25.889Z,31.57
2018-04-11T07:32:52.117Z,29.63
2018-04-11T07:35:18.336Z,29.70
2018-04-11T07:37:44.571Z,25.50
2018-04-11T07:40:10.878Z,29.57
2018-04-11T07:42:37.031Z,30.80
2018-04-11T07:45:03.281Z,26.97
2018-04-11T07:47:29.502Z,21.53
2018-04-11T07:49:56.488Z,25.80
2018-04-11T07:52:22.730Z,27.77
2018-04-11T07:54:48.983Z,27.70
2018-04-11T07:57:15.207Z,26.73
2018-04-11T07:59:41.445Z,21.27
2018-04-11T08:02:07.706Z,21.00
2018-04-11T08:04:33.936Z,22.30
2018-04-11T08:07:00.156Z,23.10
2018-04-11T08:09:26.384Z,25.83
2018-04-11T08:11:52.644Z,20.77
2018-04-11T08:14:18.907Z,18.70
2018-04-11T08:16:45.190Z,15.37
2018-04-11T08:19:12.198Z,17.80
2018-04-11T08:21:38.462Z,18.33
2018-04-11T08:24:04.592Z,12.80
2018-04-11T08:26:30.886Z,15.90
2018-04-11T08:28:57.877Z,17.47
2018-04-11T08:31:24.162Z,17.13
2018-04-11T08:33:50.410Z,18.00
2018-04-11T08:36:17.382Z,19.77
2018-04-11T08:38:44.368Z,20.67
2018-04-11T08:41:10.603Z,20.80
2018-04-11T08:43:36.822Z,18.87
2018-04-11T08:46:03.828Z,18.40
2018-04-11T08:48:30.070Z,21.47
2018-04-11T08:50:56.326Z,23.90
2018-04-11T08:53:22.548Z,19.23
2018-04-11T08:55:48.780Z,20.80
2018-04-11T08:58:15.062Z,20.43
2018-04-11T09:00:41.281Z,20.43
2018-04-11T09:03:07.489Z,19.60
2018-04-11T09:05:33.753Z,16.77
2018-04-11T09:07:59.998Z,21.47
2018-04-11T09:10:26.221Z,22.53
2018-04-11T09:12:52.464Z,25.53
2018-04-11T09:15:18.682Z,20.97
2018-04-11T09:17:44.978Z,21.63
2018-04-11T09:20:11.199Z,23.07
2018-04-11T09:22:37.432Z,26.10
2018-04-11T09:25:03.663Z,21.27
2018-04-11T09:27:29.909Z,21.00
2018-04-11T09:29:56.149Z,25.70
2018-04-11T09:32:22.398Z,20.17
2018-04-11T09:34:48.825Z,18.07
2018-04-11T09:37:15.050Z,19.50
2018-04-11T09:39:41.260Z,19.93
2018-04-11T09:42:08.259Z,14.43
2018-04-11T09:44:34.475Z,15.83
2018-04-11T09:47:00.742Z,13.00
2018-04-11T09:49:26.961Z,11.27
2018-04-11T09:51:53.953Z,16.10
2018-04-11T09:54:20.193Z,21.87
2018-04-11T09:56:46.437Z,16.20
2018-04-11T09:59:12.641Z,13.40
2018-04-11T10:01:44.894Z,16.73
2018-04-11T10:04:11.113Z,19.17
2018-04-11T10:06:37.361Z,16.90
2018-04-11T10:09:03.655Z,28.30
2018-04-11T10:11:29.889Z,20.50
2018-04-11T10:13:56.109Z,14.60
2018-04-11T10:16:23.073Z,13.70
2018-04-11T10:18:50.031Z,19.37
2018-04-11T10:21:17.023Z,12.63
2018-04-11T10:23:43.255Z,14.27
2018-04-11T10:26:09.502Z,12.43
2018-04-11T10:28:35.746Z,21.40
2018-04-11T10:31:01.996Z,15.10
2018-04-11T10:33:28.264Z,14.80
2018-04-11T10:35:54.482Z,16.67
2018-04-11T10:38:20.706Z,15.10
2018-04-11T10:40:46.940Z,10.53
2018-04-11T10:43:13.184Z,17.40
2018-04-11T10:45:39.423Z,14.47
2018-04-11T10:48:05.652Z,11.50
2018-04-11T10:50:31.850Z,14.27
2018-04-11T10:52:58.097Z,14.50
2018-04-11T10:55:24.308Z,10.00
2018-04-11T10:57:50.537Z,10.40
2018-04-11T11:00:16.746Z,13.83
2018-04-11T11:02:42.962Z,9.80
2018-04-11T11:05:09.950Z,11.83
2018-04-11T11:07:36.658Z,14.33
2018-04-11T11:10:02.984Z,11.90
2018-04-11T11:12:29.246Z,10.67
2018-04-11T11:14:55.490Z,10.73
2018-04-11T11:17:21.735Z,9.40
2018-04-11T11:20:00.841Z,8.10
2018-04-11T11:22:27.094Z,10.60
2018-04-11T11:24:53.315Z,12.03
2018-04-11T11:27:19.557Z,9.67
2018-04-11T11:29:45.799Z,8.00
2018-04-11T11:32:12.376Z,8.70
2018-04-11T11:34:38.641Z,10.70
2018-04-11T11:37:04.878Z,12.27
2018-04-11T11:39:31.140Z,16.10
2018-04-11T11:41:57.377Z,13.57
2018-04-11T11:44:23.615Z,17.00
2018-04-11T11:46:50.704Z,76.97
2018-04-11T11:49:16.956Z,22.80
2018-04-11T11:51:43.328Z,13.30
2018-04-11T11:54:09.587Z,5.80
2018-04-11T11:56:35.895Z,27.93
2018-04-11T11:59:02.135Z,23.97
2018-04-11T12:01:29.090Z,15.70
2018-04-11T12:03:55.353Z,9.73
2018-04-11T12:06:22.357Z,3.33
2018-04-11T12:08:48.579Z,7.10
2018-04-11T12:11:15.561Z,8.17
2018-04-11T12:13:41.811Z,10.33
2018-04-11T12:16:08.822Z,14.10
2018-04-11T12:18:35.829Z,10.57
2018-04-11T12:21:02.075Z,5.03
2018-04-11T12:23:28.309Z,4.47
2018-04-11T12:25:54.550Z,12.00
2018-04-11T12:28:20.817Z,7.67
2018-04-11T12:30:47.857Z,6.50
2018-04-11T12:33:14.093Z,10.37
2018-04-11T12:35:40.314Z,5.10
2018-04-11T12:38:06.550Z,8.90
2018-04-11T12:40:32.764Z,5.77
2018-04-11T12:42:58.992Z,4.50
2018-04-11T12:45:25.209Z,4.37
2018-04-11T12:47:52.166Z,8.23
2018-04-11T12:50:18.486Z,6.07
2018-04-11T12:52:45.049Z,6.67
2018-04-11T12:55:11.322Z,6.70
2018-04-11T12:57:37.582Z,6.20
2018-04-11T13:00:04.591Z,9.23
2018-04-11T13:02:30.818Z,6.53
2018-04-11T13:04:57.044Z,3.97
2018-04-11T13:07:23.259Z,6.93
2018-04-11T13:09:50.236Z,12.53
2018-04-11T13:12:16.510Z,8.13
2018-04-11T13:14:42.765Z,8.03
2018-04-11T13:17:08.998Z,8.43
2018-04-11T13:19:35.230Z,6.43
2018-04-11T13:22:01.489Z,6.43
2018-04-11T13:24:27.746Z,5.93
2018-04-11T13:26:53.971Z,8.70
2018-04-11T13:29:20.202Z,9.10
2018-04-11T13:31:46.428Z,11.87
2018-04-11T13:34:12.664Z,8.60
2018-04-11T13:36:38.892Z,7.40
2018-04-11T13:39:05.210Z,8.53
2018-04-11T13:41:31.448Z,9.97
2018-04-11T13:43:57.959Z,11.67
2018-04-11T13:46:24.219Z,13.13
2018-04-11T13:48:50.750Z,13.00
2018-04-11T13:51:17.184Z,10.43
2018-04-11T13:53:43.632Z,10.03
2018-04-11T13:56:09.934Z,11.00
2018-04-11T13:58:36.162Z,10.30
2018-04-11T14:01:03.204Z,13.50
2018-04-11T14:03:29.459Z,10.20
2018-04-11T14:05:55.725Z,9.63
2018-04-11T14:08:22.031Z,14.33
2018-04-11T14:10:48.274Z,12.40
2018-04-11T14:13:14.538Z,14.17
2018-04-11T14:15:41.071Z,12.80
2018-04-11T14:18:07.333Z,17.83
2018-04-11T14:20:33.604Z,19.17
2018-04-11T14:23:00.565Z,13.30
2018-04-11T14:25:26.854Z,17.67
2018-04-11T14:27:53.824Z,14.90
2018-04-11T14:30:20.085Z,20.73
2018-04-11T14:32:46.310Z,16.80
2018-04-11T14:35:12.605Z,15.77
2018-04-11T14:37:38.854Z,20.80
2018-04-11T14:40:05.131Z,19.47
2018-04-11T14:42:31.383Z,18.03
2018-04-11T14:44:57.829Z,21.23
2018-04-11T14:47:24.085Z,16.63
2018-04-11T14:49:50.351Z,14.90
2018-04-11T14:52:16.589Z,17.20
2018-04-11T14:54:42.845Z,20.27
2018-04-11T14:57:09.109Z,18.47
2018-04-11T14:59:36.093Z,21.60
2018-04-11T15:02:02.306Z,18.73
2018-04-11T15:04:28.540Z,16.53
2018-04-11T15:06:55.525Z,21.13
2018-04-11T15:09:21.754Z,27.60
2018-04-11T15:11:48.035Z,17.90
2018-04-11T15:14:14.264Z,24.13
2018-04-11T15:16:40.517Z,17.00
2018-04-11T15:19:06.735Z,20.30
2018-04-11T15:21:32.980Z,17.33
2018-04-11T15:23:59.212Z,18.17
2018-04-11T15:26:25.460Z,24.57
2018-04-11T15:28:51.693Z,17.97
2018-04-11T15:31:18.054Z,19.13
2018-04-11T15:33:44.423Z,19.60
2018-04-11T15:36:10.717Z,15.87
2018-04-11T15:38:36.952Z,21.67
2018-04-11T15:41:03.216Z,15.53
2018-04-11T15:43:29.453Z,16.90
2018-04-11T15:45:55.722Z,16.60
2018-04-11T15:48:21.978Z,14.77
2018-04-11T15:50:48.298Z,14.10
2018-04-11T15:53:14.526Z,14.23
2018-04-11T15:55:40.928Z,14.97
2018-04-11T15:58:07.898Z,15.83
2018-04-11T16:00:34.168Z,14.10
2018-04-11T16:03:00.400Z,17.70
2018-04-11T16:05:26.688Z,14.60
2018-04-11T16:07:52.890Z,19.77
2018-04-11T16:10:19.145Z,12.90
2018-04-11T16:12:45.394Z,17.40
2018-04-11T16:15:11.627Z,16.53
2018-04-11T16:17:37.901Z,16.63
2018-04-11T16:20:04.875Z,13.57
2018-04-11T16:22:31.130Z,12.57
2018-04-11T16:24:57.362Z,13.10
2018-04-11T16:27:23.597Z,17.40
2018-04-11T16:29:49.833Z,12.50
2018-04-11T16:32:16.788Z,14.50
2018-04-11T16:34:43.773Z,12.80
2018-04-11T16:37:10.021Z,13.07
2018-04-11T16:39:36.277Z,20.53
2018-04-11T16:42:02.510Z,17.40
2018-04-11T16:44:28.741Z,13.67
2018-04-11T16:46:54.995Z,13.40
2018-04-11T16:49:21.220Z,19.23
2018-04-11T16:51:47.477Z,14.20
2018-04-11T16:54:13.734Z,16.10
2018-04-11T16:56:40.056Z,15.30
2018-04-11T16:59:06.316Z,20.70
2018-04-11T17:01:32.580Z,15.10
2018-04-11T17:03:59.582Z,18.33
2018-04-11T17:06:25.846Z,16.77
2018-04-11T17:08:52.093Z,13.80
2018-04-11T17:11:18.390Z,21.30
2018-04-11T17:13:44.734Z,18.93
2018-04-11T17:16:11.064Z,16.87
2018-04-11T17:18:38.090Z,19.93
2018-04-11T17:21:16.577Z,14.63
2018-04-11T17:23:55.169Z,15.60
2018-04-11T17:26:34.626Z,15.30
2018-04-11T17:29:13.880Z,14.53
2018-04-11T17:31:41.320Z,16.20
2018-04-11T17:34:08.200Z,20.77
2018-04-11T17:36:35.234Z,20.00
2018-04-11T17:39:01.513Z,14.40
2018-04-11T17:41:28.504Z,18.33
2018-04-11T17:43:54.814Z,19.63
2018-04-11T17:46:21.067Z,17.90
2018-04-11T17:48:47.385Z,15.97
2018-04-11T17:51:14.392Z,16.93
2018-04-11T17:53:41.147Z,19.00
2018-04-11T17:56:07.671Z,18.27
2018-04-11T17:58:33.950Z,19.00
2018-04-11T18:01:01.004Z,19.30
2018-04-11T18:03:27.355Z,17.40
2018-04-11T18:05:53.667Z,20.57
2018-04-11T18:08:20.001Z,23.47
2018-04-11T18:10:46.240Z,30.00
2018-04-11T18:13:13.318Z,23.80
2018-04-11T18:15:39.620Z,17.00
2018-04-11T18:18:06.018Z,22.33
2018-04-11T18:20:32.293Z,19.67
2018-04-11T18:22:58.664Z,19.80
2018-04-11T18:25:24.999Z,16.93
2018-04-11T18:27:51.601Z,23.33
2018-04-11T18:30:19.042Z,19.37
2018-04-11T18:32:45.356Z,21.00
2018-04-11T18:35:13.604Z,24.77
2018-04-11T18:37:41.654Z,22.10
2018-04-11T18:40:08.450Z,28.07
2018-04-11T18:42:37.015Z,26.20
2018-04-11T18:45:03.381Z,25.13
2018-04-11T18:47:29.685Z,26.80
2018-04-11T18:49:56.007Z,22.43
2018-04-11T18:52:23.045Z,21.13
2018-04-11T18:54:49.373Z,18.73
2018-04-11T18:57:16.513Z,18.50
2018-04-11T18:59:42.807Z,27.10
2018-04-11T19:02:09.087Z,16.77
2018-04-11T19:04:36.119Z,22.53
2018-04-11T19:07:03.068Z,24.20
2018-04-11T19:09:29.392Z,24.50
2018-04-11T19:11:55.702Z,23.60
2018-04-11T19:14:23.291Z,20.60
2018-04-11T19:16:51.104Z,22.67
2018-04-11T19:19:17.530Z,23.20
2018-04-11T19:21:44.066Z,28.93
2018-04-11T19:24:10.371Z,31.77
2018-04-11T19:26:37.437Z,25.03
2018-04-11T19:29:03.718Z,25.00
2018-04-11T19:31:30.066Z,24.47
2018-04-11T19:33:56.373Z,28.90
2018-04-11T19:36:22.738Z,27.10
2018-04-11T19:38:49.832Z,24.10
2018-04-11T19:41:16.143Z,26.50
2018-04-11T19:43:42.508Z,39.03
2018-04-11T19:46:09.544Z,34.97
2018-04-11T19:48:36.743Z,25.00
2018-04-11T19:51:03.275Z,32.90
2018-04-11T19:53:29.764Z,32.13
2018-04-11T19:55:56.092Z,28.90
2018-04-11T19:58:22.633Z,34.50
2018-04-11T20:00:48.949Z,28.10
2018-04-11T20:03:16.120Z,23.60
2018-04-11T20:05:42.587Z,28.63
2018-04-11T20:08:09.389Z,21.13
2018-04-11T20:10:35.726Z,25.07
2018-04-11T20:13:02.771Z,32.00
2018-04-11T20:15:29.665Z,30.07
2018-04-11T20:17:55.984Z,32.23
2018-04-11T20:20:22.580Z,30.57
2018-04-11T20:22:49.014Z,31.00
2018-04-11T20:25:15.263Z,32.33
2018-04-11T20:27:43.004Z,29.00
2018-04-11T20:30:09.659Z,24.10
2018-04-11T20:32:36.105Z,38.23
2018-04-11T20:35:03.242Z,27.87
2018-04-11T20:37:29.648Z,29.20
2018-04-11T20:39:55.921Z,20.47
2018-04-11T20:42:22.166Z,28.40
2018-04-11T20:44:48.412Z,22.90
2018-04-11T20:47:14.648Z,28.67
2018-04-11T20:49:41.970Z,25.03
2018-04-11T20:52:08.517Z,20.57
2018-04-11T20:54:34.815Z,16.37
2018-04-11T20:57:01.963Z,15.07
2018-04-11T20:59:28.970Z,14.73
2018-04-11T21:01:55.281Z,12.07
2018-04-11T21:04:21.541Z,26.37
2018-04-11T21:06:47.795Z,14.07
2018-04-11T21:09:14.047Z,17.23
2018-04-11T21:11:40.398Z,6.97
2018-04-11T21:14:06.634Z,4.63
2018-04-11T21:16:32.966Z,14.63
2018-04-11T21:18:59.179Z,7.63
2018-04-11T21:21:25.792Z,15.73
2018-04-11T21:23:52.754Z,15.77
2018-04-11T21:26:19.267Z,10.17
2018-04-11T21:28:45.513Z,16.00
2018-04-11T21:31:11.812Z,9.73
2018-04-11T21:33:38.062Z,8.80
2018-04-11T21:36:04.328Z,6.87
2018-04-11T21:38:30.553Z,10.07
2018-04-11T21:40:56.797Z,12.03
2018-04-11T21:43:23.017Z,5.90
2018-04-11T21:45:49.262Z,8.23
2018-04-11T21:48:15.516Z,17.17
2018-04-11T21:50:41.765Z,11.60
2018-04-11T21:53:07.999Z,3.27
2018-04-11T21:55:34.274Z,15.50
2018-04-11T21:58:00.494Z,4.70
2018-04-11T22:00:26.740Z,6.00
2018-04-11T22:02:52.978Z,12.13
2018-04-11T22:05:19.232Z,11.33
2018-04-11T22:07:45.443Z,12.47
2018-04-11T22:10:11.694Z,5.93
2018-04-11T22:12:37.919Z,13.17
2018-04-11T22:15:04.174Z,6.13
2018-04-11T22:17:30.406Z,7.03
2018-04-11T22:19:56.636Z,13.33
2018-04-11T22:22:22.906Z,7.60
2018-04-11T22:24:49.116Z,6.67
2018-04-11T22:27:15.388Z,8.03
2018-04-11T22:29:41.601Z,8.80
2018-04-11T22:32:07.847Z,5.93
2018-04-11T22:34:34.088Z,7.50
2018-04-11T22:37:00.327Z,8.10
2018-04-11T22:39:26.570Z,9.13
2018-04-11T22:41:52.816Z,13.40
2018-04-11T22:44:19.041Z,4.63
2018-04-11T22:46:45.279Z,14.90
2018-04-11T22:49:11.508Z,13.40
2018-04-11T22:51:37.764Z,6.47
2018-04-11T22:54:03.994Z,13.03
2018-04-11T22:56:30.262Z,11.57
2018-04-11T22:58:56.507Z,18.10
2018-04-11T23:01:22.778Z,7.17
2018-04-11T23:03:49.756Z,3.77
2018-04-11T23:06:16.013Z,5.70
2018-04-11T23:08:42.230Z,13.63
2018-04-11T23:11:09.240Z,5.37
2018-04-11T23:13:36.219Z,4.23
2018-04-11T23:16:02.491Z,4.10
2018-04-11T23:18:29.489Z,10.13
2018-04-11T23:20:55.730Z,3.83
2018-04-11T23:23:21.948Z,4.93
2018-04-11T23:25:48.208Z,11.27
2018-04-11T23:28:15.165Z,9.40
2018-04-11T23:30:41.409Z,6.60
2018-04-11T23:33:07.641Z,3.93
2018-04-11T23:35:33.869Z,5.70
2018-04-11T23:38:00.130Z,5.80
2018-04-11T23:40:26.342Z,6.40
2018-04-11T23:42:52.586Z,7.40
2018-04-11T23:45:18.814Z,2.43
2018-04-11T23:47:45.057Z,7.17
2018-04-11T23:50:11.279Z,9.37
2018-04-11T23:52:38.246Z,17.30
2018-04-11T23:55:04.471Z,6.17
2018-04-11T23:57:31.450Z,5.43
2018-04-11T23:59:57.694Z,7.80
